createdAt,value
2023-05-04T00:02:07.136Z,61.18
2023-05-04T00:04:34.036Z,61.38
2023-05-04T00:07:01.001Z,61.74
2023-05-04T00:09:27.923Z,61.94
2023-05-04T00:11:54.780Z,61.75
2023-05-04T00:14:21.679Z,61.93
2023-05-04T00:16:48.799Z,62.11
2023-05-04T00:19:15.744Z,62.43
2023-05-04T00:21:42.553Z,62.65
2023-05-04T00:24:09.386Z,62.57
2023-05-04T00:26:36.369Z,63.08
2023-05-04T00:29:03.326Z,62.87
2023-05-04T00:31:30.272Z,62.88
2023-05-04T00:33:57.157Z,63.42
2023-05-04T00:36:24.129Z,63.28
2023-05-04T00:38:52.537Z,63.79
2023-05-04T00:41:20.328Z,63.82
2023-05-04T00:43:47.685Z,63.93
2023-05-04T00:46:15.722Z,64.11
2023-05-04T00:48:43.652Z,64.07
2023-05-04T00:51:12.244Z,64.08
2023-05-04T00:53:39.206Z,63.83
2023-05-04T00:56:07.308Z,64.11
2023-05-04T00:58:35.468Z,63.74
2023-05-04T01:01:03.581Z,64.19
2023-05-04T01:03:32.573Z,63.83
2023-05-04T01:06:26.698Z,64.32
2023-05-04T01:09:06.507Z,64.22
2023-05-04T01:11:52.365Z,64.11
2023-05-04T01:14:23.443Z,64.63
2023-05-04T01:16:55.040Z,64.43
2023-05-04T01:19:22.479Z,63.94
2023-05-04T01:21:49.384Z,63.81
2023-05-04T01:24:16.706Z,63.61
2023-05-04T01:26:46.658Z,64.22
2023-05-04T01:29:19.198Z,64.19
2023-05-04T01:31:46.871Z,64.16
2023-05-04T01:34:14.753Z,64.08
2023-05-04T01:36:42.105Z,64.14
2023-05-04T01:39:10.109Z,64.27
2023-05-04T01:41:37.211Z,64.54
2023-05-04T01:44:04.818Z,64.39
2023-05-04T01:46:31.925Z,64.59
2023-05-04T01:49:00.255Z,64.39
2023-05-04T01:51:27.168Z,64.69
2023-05-04T01:53:54.181Z,64.36
2023-05-04T01:56:22.071Z,64.33
2023-05-04T01:58:48.999Z,64.66
2023-05-04T02:01:15.947Z,64.74
2023-05-04T02:03:43.279Z,64.54
2023-05-04T02:06:10.628Z,64.57
2023-05-04T02:08:38.315Z,64.59
2023-05-04T02:11:05.185Z,64.77
2023-05-04T02:13:32.261Z,64.73
2023-05-04T02:15:59.354Z,64.85
2023-05-04T02:18:26.261Z,65.07
2023-05-04T02:20:53.135Z,65.08
2023-05-04T02:23:20.285Z,65.31
2023-05-04T02:25:47.215Z,65.50
2023-05-04T02:28:14.234Z,65.42
2023-05-04T02:30:42.161Z,65.28
2023-05-04T02:33:09.536Z,65.50
2023-05-04T02:35:36.952Z,65.69
2023-05-04T02:38:06.078Z,65.62
2023-05-04T02:40:34.087Z,65.87
2023-05-04T02:43:00.980Z,65.63
2023-05-04T02:45:27.921Z,65.98
2023-05-04T02:47:55.291Z,65.77
2023-05-04T02:50:22.448Z,66.16
2023-05-04T02:52:49.459Z,66.14
2023-05-04T02:55:16.888Z,66.24
2023-05-04T02:57:43.782Z,66.56
2023-05-04T03:00:11.208Z,66.30
2023-05-04T03:02:38.434Z,66.17
2023-05-04T03:05:06.457Z,66.41
2023-05-04T03:07:34.624Z,66.74
2023-05-04T03:10:02.183Z,66.54
2023-05-04T03:12:29.136Z,66.95
2023-05-04T03:14:56.181Z,66.80
2023-05-04T03:17:23.183Z,67.01
2023-05-04T03:19:50.132Z,67.12
2023-05-04T03:22:17.718Z,66.83
2023-05-04T03:24:44.726Z,66.72
2023-05-04T03:27:12.592Z,66.47
2023-05-04T03:29:39.687Z,66.49
2023-05-04T03:32:07.289Z,66.15
2023-05-04T03:34:34.454Z,66.59
2023-05-04T03:37:04.484Z,66.57
2023-05-04T03:39:32.608Z,66.75
2023-05-04T03:41:59.598Z,66.68
2023-05-04T03:44:26.815Z,66.99
2023-05-04T03:46:54.100Z,67.07
2023-05-04T03:49:21.436Z,66.86
2023-05-04T03:51:48.430Z,67.10
2023-05-04T03:54:15.298Z,66.96
2023-05-04T03:56:43.328Z,67.27
2023-05-04T03:59:11.110Z,67.46
2023-05-04T04:01:38.332Z,67.73
2023-05-04T04:04:05.397Z,67.22
2023-05-04T04:06:32.399Z,67.60
2023-05-04T04:08:59.753Z,67.24
2023-05-04T04:11:26.843Z,67.44
2023-05-04T04:13:53.801Z,67.52
2023-05-04T04:16:21.516Z,67.56
2023-05-04T04:18:48.929Z,67.37
2023-05-04T04:21:15.841Z,67.20
2023-05-04T04:23:42.701Z,67.30
2023-05-04T04:26:09.585Z,67.40
2023-05-04T04:28:36.471Z,66.98
2023-05-04T04:31:04.392Z,66.80
2023-05-04T04:33:31.301Z,66.71
2023-05-04T04:35:58.191Z,66.85
2023-05-04T04:38:25.145Z,66.75
2023-05-04T04:40:52.972Z,66.74
2023-05-04T04:43:19.920Z,66.58
2023-05-04T04:45:47.127Z,66.66
2023-05-04T04:48:14.254Z,66.53
2023-05-04T04:50:41.328Z,66.36
2023-05-04T04:53:08.208Z,66.32
2023-05-04T04:55:35.172Z,66.19
2023-05-04T04:58:02.045Z,66.21
2023-05-04T05:00:29.262Z,65.89
2023-05-04T05:02:56.751Z,65.69
2023-05-04T05:05:23.756Z,65.40
2023-05-04T05:07:51.825Z,65.47
2023-05-04T05:10:19.614Z,65.53
2023-05-04T05:12:46.940Z,65.31
2023-05-04T05:15:13.970Z,64.94
2023-05-04T05:17:40.981Z,64.77
2023-05-04T05:20:11.916Z,64.73
2023-05-04T05:22:39.420Z,64.39
2023-05-04T05:25:07.800Z,64.00
2023-05-04T05:27:34.950Z,63.96
2023-05-04T05:30:03.502Z,63.89
2023-05-04T05:32:31.875Z,63.42
2023-05-04T05:34:58.790Z,63.13
2023-05-04T05:37:25.700Z,62.86
2023-05-04T05:39:52.590Z,62.46
2023-05-04T05:42:19.826Z,62.66
2023-05-04T05:44:46.621Z,62.26
2023-05-04T05:47:13.599Z,61.99
2023-05-04T05:49:42.178Z,61.71
2023-05-04T05:52:10.633Z,61.69
2023-05-04T05:54:38.853Z,61.25
2023-05-04T05:57:05.682Z,61.26
2023-05-04T05:59:32.519Z,61.35
2023-05-04T06:02:00.288Z,61.23
2023-05-04T06:04:27.203Z,61.13
2023-05-04T06:06:54.098Z,61.07
2023-05-04T06:09:21.388Z,60.80
2023-05-04T06:11:48.231Z,60.43
2023-05-04T06:14:15.796Z,60.51
2023-05-04T06:16:43.004Z,60.39
2023-05-04T06:19:09.923Z,60.42
2023-05-04T06:21:36.865Z,60.25
2023-05-04T06:24:03.900Z,60.47
2023-05-04T06:26:30.756Z,60.15
2023-05-04T06:28:57.870Z,60.40
2023-05-04T06:31:24.746Z,60.13
2023-05-04T06:33:52.275Z,60.19
2023-05-04T06:36:19.252Z,60.10
2023-05-04T06:38:46.157Z,60.11
2023-05-04T06:41:13.037Z,59.78
2023-05-04T06:43:42.352Z,59.95
2023-05-04T06:46:09.419Z,59.77
2023-05-04T06:48:36.394Z,59.62
2023-05-04T06:51:03.345Z,59.70
2023-05-04T06:53:30.504Z,59.99
2023-05-04T06:55:58.646Z,59.57
2023-05-04T06:58:26.213Z,59.67
2023-05-04T07:00:53.333Z,59.53
2023-05-04T07:03:20.488Z,59.30
2023-05-04T07:05:49.034Z,59.13
2023-05-04T07:08:16.317Z,59.29
2023-05-04T07:10:43.296Z,59.27
2023-05-04T07:13:10.605Z,58.83
2023-05-04T07:15:37.642Z,58.94
2023-05-04T07:18:04.633Z,58.50
2023-05-04T07:20:31.776Z,58.84
2023-05-04T07:22:58.861Z,58.79
2023-05-04T07:25:26.675Z,58.87
2023-05-04T07:27:54.070Z,58.76
2023-05-04T07:30:21.606Z,58.81
2023-05-04T07:32:48.540Z,58.81
2023-05-04T07:35:15.483Z,58.50
2023-05-04T07:37:45.025Z,58.55
2023-05-04T07:40:14.251Z,58.70
2023-05-04T07:42:42.130Z,58.48
2023-05-04T07:45:10.161Z,58.36
2023-05-04T07:47:37.660Z,58.20
2023-05-04T07:50:05.363Z,58.16
2023-05-04T07:52:33.419Z,57.84
2023-05-04T07:55:00.326Z,57.78
2023-05-04T07:57:27.655Z,57.31
2023-05-04T07:59:55.748Z,57.09
2023-05-04T08:02:23.230Z,56.82
2023-05-04T08:04:50.312Z,56.88
2023-05-04T08:07:17.900Z,56.49
2023-05-04T08:09:45.014Z,56.48
2023-05-04T08:12:12.601Z,56.68
2023-05-04T08:14:40.818Z,56.45
2023-05-04T08:17:07.977Z,56.00
2023-05-04T08:19:35.148Z,55.20
2023-05-04T08:22:02.748Z,54.38
2023-05-04T08:24:30.824Z,53.63
2023-05-04T08:27:07.354Z,53.07
2023-05-04T08:29:37.518Z,52.90
2023-05-04T08:32:05.295Z,52.56
2023-05-04T08:34:32.125Z,52.89
2023-05-04T08:36:59.028Z,52.64
2023-05-04T08:39:26.109Z,52.29
2023-05-04T08:41:53.629Z,51.97
2023-05-04T08:44:21.960Z,51.86
2023-05-04T08:46:53.896Z,51.63
2023-05-04T08:49:21.438Z,50.97
2023-05-04T08:51:51.922Z,50.61
2023-05-04T08:54:19.190Z,49.93
2023-05-04T08:56:47.421Z,50.24
2023-05-04T08:59:21.791Z,50.30
2023-05-04T09:01:52.257Z,50.71
2023-05-04T09:04:19.216Z,50.46
2023-05-04T09:06:48.016Z,49.71
2023-05-04T09:09:15.025Z,49.28
2023-05-04T09:11:42.012Z,49.75
2023-05-04T09:14:08.838Z,49.90
2023-05-04T09:16:36.860Z,49.76
2023-05-04T09:19:17.796Z,48.94
2023-05-04T09:21:44.676Z,48.67
2023-05-04T09:24:12.940Z,48.63
2023-05-04T09:26:39.814Z,48.24
2023-05-04T09:29:14.177Z,47.93
2023-05-04T09:31:48.659Z,47.61
2023-05-04T09:34:15.965Z,47.30
2023-05-04T09:36:42.904Z,47.25
2023-05-04T09:39:13.573Z,47.65
2023-05-04T09:41:40.826Z,47.72
2023-05-04T09:44:22.619Z,47.83
2023-05-04T09:46:57.033Z,47.66
2023-05-04T09:49:50.335Z,48.12
2023-05-04T09:52:17.888Z,47.61
2023-05-04T09:54:45.377Z,47.22
2023-05-04T09:57:16.156Z,46.85
2023-05-04T09:59:42.998Z,47.08
2023-05-04T10:02:22.115Z,47.02
2023-05-04T10:04:50.925Z,46.19
2023-05-04T10:07:18.161Z,45.81
2023-05-04T10:09:45.085Z,45.71
2023-05-04T10:12:12.397Z,45.55
2023-05-04T10:14:39.326Z,45.55
2023-05-04T10:17:18.351Z,45.07
2023-05-04T10:19:49.385Z,44.85
2023-05-04T10:22:46.769Z,45.60
2023-05-04T10:25:28.250Z,45.30
2023-05-04T10:27:55.068Z,45.31
2023-05-04T10:30:23.222Z,44.36
2023-05-04T10:32:57.789Z,44.44
2023-05-04T10:35:25.571Z,44.31
2023-05-04T10:37:54.742Z,44.37
2023-05-04T10:40:37.613Z,44.62
2023-05-04T10:43:04.990Z,44.41
2023-05-04T10:45:42.102Z,44.70
2023-05-04T10:48:09.807Z,44.50
2023-05-04T10:50:46.610Z,44.29
2023-05-04T10:53:16.559Z,43.27
2023-05-04T10:55:48.001Z,44.07
2023-05-04T10:58:19.386Z,43.57
2023-05-04T11:00:47.362Z,43.55
2023-05-04T11:03:15.574Z,43.90
2023-05-04T11:05:47.293Z,43.61
2023-05-04T11:08:19.499Z,43.31
2023-05-04T11:11:11.722Z,42.96
2023-05-04T11:13:47.647Z,42.73
2023-05-04T11:16:15.021Z,42.63
2023-05-04T11:18:42.016Z,42.12
2023-05-04T11:21:09.698Z,41.65
2023-05-04T11:23:37.236Z,41.36
2023-05-04T11:26:09.329Z,40.99
2023-05-04T11:28:37.468Z,41.01
2023-05-04T11:31:14.671Z,41.37
2023-05-04T11:33:48.825Z,41.27
2023-05-04T11:36:16.105Z,40.72
2023-05-04T11:38:43.415Z,40.48
2023-05-04T11:41:10.889Z,40.02
2023-05-04T11:43:39.757Z,41.11
2023-05-04T11:46:08.422Z,40.79
2023-05-04T11:48:35.807Z,40.22
2023-05-04T11:51:03.196Z,40.03
2023-05-04T11:53:37.700Z,39.97
2023-05-04T11:56:06.147Z,39.34
2023-05-04T11:58:33.291Z,40.36
2023-05-04T12:01:00.481Z,39.87
2023-05-04T12:06:05.238Z,39.50
2023-05-04T12:08:35.128Z,39.10
2023-05-04T12:11:14.930Z,39.46
2023-05-04T12:13:46.286Z,39.03
2023-05-04T12:16:18.743Z,38.05
2023-05-04T12:18:46.635Z,38.21
2023-05-04T12:21:21.717Z,37.70
2023-05-04T12:23:50.004Z,38.19
2023-05-04T12:26:19.635Z,38.34
2023-05-04T12:28:47.593Z,37.79
2023-05-04T12:31:15.183Z,37.50
2023-05-04T12:33:42.145Z,37.65
2023-05-04T12:36:11.500Z,37.72
2023-05-04T12:38:38.417Z,37.18
2023-05-04T12:41:07.707Z,37.58
2023-05-04T12:43:34.971Z,37.26
2023-05-04T12:46:02.101Z,37.70
2023-05-04T12:48:32.981Z,36.67
2023-05-04T12:51:01.263Z,37.28
2023-05-04T12:53:30.253Z,36.95
2023-05-04T12:55:57.655Z,36.69
2023-05-04T12:58:24.698Z,36.78
2023-05-04T13:00:52.139Z,36.92
2023-05-04T13:03:19.349Z,36.61
2023-05-04T13:05:47.715Z,37.13
2023-05-04T13:08:14.621Z,36.94
2023-05-04T13:10:41.757Z,37.52
2023-05-04T13:13:09.150Z,37.33
2023-05-04T13:15:36.099Z,36.38
2023-05-04T13:18:03.302Z,36.13
2023-05-04T13:20:31.011Z,35.88
2023-05-04T13:22:58.654Z,36.01
2023-05-04T13:25:25.890Z,36.54
2023-05-04T13:27:53.020Z,35.70
2023-05-04T13:30:21.800Z,35.29
2023-05-04T13:32:49.464Z,34.83
2023-05-04T13:35:16.473Z,34.78
2023-05-04T13:37:43.438Z,34.72
2023-05-04T13:40:11.020Z,34.73
2023-05-04T13:42:38.384Z,34.92
2023-05-04T13:45:06.719Z,35.39
2023-05-04T13:47:34.668Z,35.47
2023-05-04T13:50:02.514Z,34.87
2023-05-04T13:52:29.436Z,35.22
2023-05-04T13:54:56.835Z,35.25
2023-05-04T13:57:23.799Z,35.62
2023-05-04T14:00:05.155Z,35.38
2023-05-04T14:02:40.493Z,34.36
2023-05-04T14:05:08.472Z,33.90
2023-05-04T14:07:35.720Z,33.58
2023-05-04T14:10:02.800Z,33.43
2023-05-04T14:12:30.383Z,32.97
2023-05-04T14:14:59.158Z,32.27
2023-05-04T14:17:26.156Z,32.36
2023-05-04T14:19:53.213Z,32.19
2023-05-04T14:22:20.198Z,31.45
2023-05-04T14:24:47.238Z,31.69
2023-05-04T14:27:14.224Z,31.90
2023-05-04T14:29:41.206Z,32.09
2023-05-04T14:32:08.274Z,32.28
2023-05-04T14:34:36.402Z,32.70
2023-05-04T14:37:03.472Z,32.87
2023-05-04T14:39:30.373Z,32.44
2023-05-04T14:42:00.851Z,32.71
2023-05-04T14:44:30.111Z,33.13
2023-05-04T14:46:57.409Z,33.13
2023-05-04T14:49:36.657Z,33.22
2023-05-04T14:52:05.386Z,33.47
2023-05-04T14:54:33.140Z,33.03
2023-05-04T14:57:00.116Z,33.54
2023-05-04T14:59:27.139Z,33.03
2023-05-04T15:01:55.753Z,32.95
2023-05-04T15:04:22.874Z,33.19
2023-05-04T15:06:49.958Z,33.86
2023-05-04T15:09:16.905Z,33.23
2023-05-04T15:11:44.005Z,33.94
2023-05-04T15:14:11.263Z,33.52
2023-05-04T15:16:38.497Z,33.76
2023-05-04T15:19:06.173Z,33.63
2023-05-04T15:21:33.200Z,33.23
2023-05-04T15:24:00.575Z,33.75
2023-05-04T15:26:29.204Z,33.91
2023-05-04T15:28:56.367Z,34.24
2023-05-04T15:31:23.592Z,33.76
2023-05-04T15:33:50.650Z,33.93
2023-05-04T15:36:17.854Z,34.23
2023-05-04T15:38:44.828Z,34.33
2023-05-04T15:41:11.959Z,34.39
2023-05-04T15:43:38.848Z,34.42
2023-05-04T15:46:05.868Z,34.84
2023-05-04T15:48:32.892Z,34.21
2023-05-04T15:50:59.655Z,34.97
2023-05-04T15:53:27.536Z,34.85
2023-05-04T15:55:54.488Z,34.88
2023-05-04T15:58:22.759Z,34.57
2023-05-04T16:00:50.038Z,35.06
2023-05-04T16:03:18.486Z,34.75
2023-05-04T16:05:45.463Z,34.89
2023-05-04T16:08:12.802Z,35.39
2023-05-04T16:10:39.950Z,35.36
2023-05-04T16:13:08.059Z,35.64
2023-05-04T16:15:36.718Z,35.83
2023-05-04T16:18:03.790Z,35.48
2023-05-04T16:20:31.052Z,35.21
2023-05-04T16:22:58.065Z,35.51
2023-05-04T16:25:25.087Z,35.76
2023-05-04T16:27:52.514Z,36.26
2023-05-04T16:30:19.529Z,36.37
2023-05-04T16:32:46.962Z,36.83
2023-05-04T16:35:14.124Z,37.71
2023-05-04T16:37:41.145Z,37.73
2023-05-04T16:40:15.332Z,37.78
2023-05-04T16:42:45.931Z,37.99
2023-05-04T16:45:14.012Z,37.59
2023-05-04T16:47:41.917Z,37.81
2023-05-04T16:50:10.064Z,38.12
2023-05-04T16:52:37.648Z,38.22
2023-05-04T16:55:05.181Z,38.86
2023-05-04T16:57:32.161Z,38.89
2023-05-04T16:59:59.259Z,38.95
2023-05-04T17:02:26.451Z,39.59
2023-05-04T17:04:53.707Z,39.68
2023-05-04T17:07:20.803Z,39.80
2023-05-04T17:09:47.695Z,39.72
2023-05-04T17:12:15.609Z,39.92
2023-05-04T17:14:42.922Z,39.89
2023-05-04T17:17:09.900Z,39.81
2023-05-04T17:19:36.808Z,40.18
2023-05-04T17:22:03.764Z,40.53
2023-05-04T17:24:30.582Z,40.58
2023-05-04T17:26:57.792Z,40.86
2023-05-04T17:29:24.714Z,41.02
2023-05-04T17:31:51.730Z,41.35
2023-05-04T17:34:18.641Z,41.79
2023-05-04T17:36:46.321Z,41.58
2023-05-04T17:39:13.172Z,41.80
2023-05-04T17:41:41.094Z,41.70
2023-05-04T17:44:07.979Z,41.68
2023-05-04T17:46:34.946Z,41.91
2023-05-04T17:49:01.908Z,42.31
2023-05-04T17:51:28.812Z,42.05
2023-05-04T17:53:55.674Z,42.09
2023-05-04T17:56:22.632Z,42.51
2023-05-04T17:58:49.551Z,42.63
2023-05-04T18:01:17.000Z,42.62
2023-05-04T18:03:44.327Z,42.82
2023-05-04T18:06:11.364Z,43.08
2023-05-04T18:08:38.346Z,43.18
2023-05-04T18:11:05.290Z,43.15
2023-05-04T18:13:32.196Z,43.17
2023-05-04T18:15:59.376Z,43.34
2023-05-04T18:18:26.326Z,43.40
2023-05-04T18:20:53.250Z,43.34
2023-05-04T18:23:20.390Z,43.32
2023-05-04T18:25:47.284Z,43.38
2023-05-04T18:28:14.123Z,43.61
2023-05-04T18:30:41.252Z,43.59
2023-05-04T18:33:08.672Z,43.74
2023-05-04T18:35:38.636Z,43.87
2023-05-04T18:38:06.442Z,44.16
2023-05-04T18:40:33.447Z,44.03
2023-05-04T18:43:00.566Z,44.22
2023-05-04T18:45:28.185Z,44.35
2023-05-04T18:47:55.275Z,44.41
2023-05-04T18:50:22.182Z,44.01
2023-05-04T18:52:49.181Z,44.37
2023-05-04T18:55:16.125Z,44.49
2023-05-04T18:57:43.253Z,44.56
2023-05-04T19:00:11.936Z,44.60
2023-05-04T19:02:39.203Z,44.57
2023-05-04T19:05:06.376Z,44.62
2023-05-04T19:07:33.432Z,44.74
2023-05-04T19:10:00.289Z,44.92
2023-05-04T19:12:28.337Z,44.69
2023-05-04T19:14:56.092Z,44.87
2023-05-04T19:17:23.445Z,44.84
2023-05-04T19:19:50.748Z,44.89
2023-05-04T19:22:17.680Z,44.93
2023-05-04T19:24:44.750Z,44.72
2023-05-04T19:27:11.687Z,44.67
2023-05-04T19:29:39.348Z,44.74
2023-05-04T19:32:19.843Z,44.73
2023-05-04T19:34:50.250Z,45.21
2023-05-04T19:37:17.167Z,45.16
2023-05-04T19:39:44.775Z,45.11
2023-05-04T19:42:11.920Z,45.35
2023-05-04T19:44:40.535Z,45.75
2023-05-04T19:47:07.710Z,46.21
2023-05-04T19:49:35.355Z,46.32
2023-05-04T19:52:02.314Z,47.06
2023-05-04T19:54:29.404Z,47.06
2023-05-04T19:56:56.831Z,47.36
2023-05-04T19:59:24.813Z,47.72
2023-05-04T20:01:51.735Z,48.02
2023-05-04T20:04:19.154Z,48.44
2023-05-04T20:06:46.130Z,48.81
2023-05-04T20:09:13.840Z,48.91
2023-05-04T20:11:40.944Z,49.24
2023-05-04T20:14:08.554Z,49.25
2023-05-04T20:16:35.585Z,49.15
2023-05-04T20:19:04.122Z,49.31
2023-05-04T20:21:32.726Z,49.62
2023-05-04T20:23:59.613Z,49.69
2023-05-04T20:26:26.493Z,49.77
2023-05-04T20:28:53.320Z,50.24
2023-05-04T20:31:20.181Z,49.89
2023-05-04T20:33:47.082Z,50.34
2023-05-04T20:36:13.954Z,50.61
2023-05-04T20:38:41.997Z,50.35
2023-05-04T20:41:09.805Z,50.81
2023-05-04T20:43:36.827Z,50.86
2023-05-04T20:46:04.684Z,50.90
2023-05-04T20:48:32.219Z,51.08
2023-05-04T20:51:12.796Z,51.10
2023-05-04T20:53:41.019Z,51.03
2023-05-04T20:56:07.920Z,51.76
2023-05-04T20:58:34.802Z,52.05
2023-05-04T21:01:05.298Z,52.28
2023-05-04T21:03:32.689Z,53.12
2023-05-04T21:05:59.886Z,53.24
2023-05-04T21:08:26.999Z,53.99
2023-05-04T21:10:54.099Z,53.96
2023-05-04T21:13:21.102Z,54.58
2023-05-04T21:15:48.155Z,54.76
2023-05-04T21:18:15.273Z,54.52
2023-05-04T21:20:42.773Z,54.74
2023-05-04T21:23:09.737Z,55.18
2023-05-04T21:25:36.967Z,55.19
2023-05-04T21:28:04.152Z,55.56
2023-05-04T21:30:30.980Z,55.62
2023-05-04T21:32:57.996Z,55.59
2023-05-04T21:35:24.920Z,55.90
2023-05-04T21:37:52.154Z,56.21
2023-05-04T21:40:19.133Z,56.17
2023-05-04T21:42:46.075Z,56.26
2023-05-04T21:45:12.933Z,56.63
2023-05-04T21:47:40.102Z,56.24
2023-05-04T21:50:08.146Z,56.22
2023-05-04T21:52:35.241Z,56.34
2023-05-04T21:55:02.352Z,56.13
2023-05-04T21:57:33.310Z,56.14
2023-05-04T22:00:00.349Z,56.00
2023-05-04T22:02:27.256Z,55.85
2023-05-04T22:04:54.592Z,56.25
2023-05-04T22:07:21.483Z,56.07
2023-05-04T22:09:48.556Z,56.16
2023-05-04T22:12:15.906Z,55.87
2023-05-04T22:14:43.562Z,56.03
2023-05-04T22:17:10.651Z,56.00
2023-05-04T22:19:38.461Z,55.93
2023-05-04T22:22:05.493Z,56.09
2023-05-04T22:24:32.537Z,56.11
2023-05-04T22:26:59.780Z,56.00
2023-05-04T22:29:27.059Z,56.13
2023-05-04T22:31:54.830Z,56.57
2023-05-04T22:34:21.658Z,56.44
2023-05-04T22:36:48.934Z,56.26
2023-05-04T22:39:16.234Z,56.80
2023-05-04T22:41:43.690Z,56.66
2023-05-04T22:46:51.968Z,56.71
2023-05-04T22:49:18.854Z,56.97
2023-05-04T22:51:45.730Z,57.30
2023-05-04T22:54:12.760Z,57.11
2023-05-04T22:56:40.848Z,57.04
2023-05-04T22:59:07.767Z,57.18
2023-05-04T23:01:34.782Z,57.32
2023-05-04T23:04:01.734Z,57.47
2023-05-04T23:06:28.949Z,57.45
2023-05-04T23:08:56.268Z,57.35
2023-05-04T23:11:24.246Z,57.60
2023-05-04T23:13:51.196Z,57.93
2023-05-04T23:16:18.619Z,57.89
2023-05-04T23:18:48.095Z,57.98
2023-05-04T23:21:14.991Z,58.12
2023-05-04T23:23:42.595Z,58.22
2023-05-04T23:26:09.573Z,58.03
2023-05-04T23:28:37.631Z,58.11
2023-05-04T23:31:04.635Z,57.76
2023-05-04T23:33:31.529Z,57.98
2023-05-04T23:35:58.392Z,57.98
2023-05-04T23:38:25.297Z,57.75
2023-05-04T23:40:52.510Z,57.78
2023-05-04T23:43:19.557Z,58.03
2023-05-04T23:45:46.523Z,57.84
2023-05-04T23:48:13.359Z,57.75
2023-05-04T23:50:40.249Z,58.05
2023-05-04T23:53:07.426Z,58.02
2023-05-04T23:55:34.358Z,58.07
2023-05-04T23:58:01.424Z,58.10
